createdAt,value
2023-05-14T00:00:38.339Z,10.55
2023-05-14T00:05:43.782Z,9.35
2023-05-14T00:10:47.801Z,9.88
2023-05-14T00:15:52.161Z,9.77
2023-05-14T00:20:57.542Z,9.95
2023-05-14T00:26:01.653Z,10.18
2023-05-14T00:31:06.385Z,9.13
2023-05-14T00:36:11.968Z,9.43
2023-05-14T00:41:16.038Z,8.57
2023-05-14T00:46:20.489Z,9.65
2023-05-14T00:51:27.096Z,8.30
2023-05-14T00:56:31.169Z,8.20
2023-05-14T01:01:35.419Z,8.18
2023-05-14T01:06:55.620Z,8.05
2023-05-14T01:12:07.276Z,8.25
2023-05-14T01:17:13.588Z,7.60
2023-05-14T01:22:19.017Z,8.30
2023-05-14T01:27:31.458Z,8.48
2023-05-14T01:32:35.838Z,8.90
2023-05-14T01:37:42.651Z,8.50
2023-05-14T01:42:51.162Z,8.90
2023-05-14T01:47:55.602Z,8.67
2023-05-14T01:53:01.358Z,9.18
2023-05-14T01:58:05.613Z,8.63
2023-05-14T02:03:09.703Z,9.80
2023-05-14T02:08:15.159Z,8.00
2023-05-14T02:13:19.296Z,9.68
2023-05-14T02:18:23.369Z,9.30
2023-05-14T02:23:40.388Z,9.30
2023-05-14T02:28:45.786Z,9.40
2023-05-14T02:33:50.478Z,8.98
2023-05-14T02:38:55.969Z,9.55
2023-05-14T02:44:00.067Z,8.98
2023-05-14T02:49:04.398Z,9.63
2023-05-14T02:54:09.772Z,9.93
2023-05-14T02:59:13.878Z,9.40
2023-05-14T03:04:18.294Z,9.73
2023-05-14T03:09:23.739Z,9.85
2023-05-14T03:14:27.760Z,9.70
2023-05-14T03:19:31.804Z,9.27
2023-05-14T03:24:40.014Z,9.32
2023-05-14T03:29:44.094Z,9.52
2023-05-14T03:34:48.302Z,9.23
2023-05-14T03:39:53.698Z,8.45
2023-05-14T03:44:57.744Z,9.57
2023-05-14T03:50:01.996Z,8.65
2023-05-14T03:55:09.379Z,8.90
2023-05-14T04:00:15.328Z,9.20
2023-05-14T04:05:21.983Z,8.80
2023-05-14T04:10:27.491Z,9.02
2023-05-14T04:15:31.805Z,8.98
2023-05-14T04:20:36.914Z,9.27
2023-05-14T04:25:42.482Z,8.98
2023-05-14T04:30:46.783Z,8.90
2023-05-14T04:35:52.193Z,9.18
2023-05-14T04:40:57.597Z,8.40
2023-05-14T04:46:01.952Z,8.70
2023-05-14T04:51:07.200Z,8.57
2023-05-14T04:56:12.735Z,8.93
2023-05-14T05:01:16.926Z,9.35
2023-05-14T05:06:21.190Z,10.00
2023-05-14T05:11:26.660Z,9.50
2023-05-14T05:16:30.693Z,9.23
2023-05-14T05:21:34.878Z,9.90
2023-05-14T05:26:40.291Z,9.15
2023-05-14T05:31:44.366Z,8.95
2023-05-14T05:36:48.337Z,9.48
2023-05-14T05:41:55.523Z,9.88
2023-05-14T05:46:59.677Z,9.33
2023-05-14T05:52:04.056Z,9.40
2023-05-14T05:57:09.448Z,8.93
2023-05-14T06:02:13.600Z,9.43
2023-05-14T06:07:17.766Z,9.57
2023-05-14T06:12:23.152Z,9.15
2023-05-14T06:17:27.519Z,9.02
2023-05-14T06:22:31.564Z,8.63
2023-05-14T06:27:36.985Z,10.60
2023-05-14T06:32:41.103Z,8.07
2023-05-14T06:37:45.160Z,8.25
2023-05-14T06:42:50.529Z,8.70
2023-05-14T06:47:54.585Z,9.18
2023-05-14T06:52:58.798Z,8.20
2023-05-14T06:58:04.257Z,8.80
2023-05-14T07:03:08.597Z,8.30
2023-05-14T07:08:12.592Z,8.32
2023-05-14T07:13:17.961Z,8.35
2023-05-14T07:18:21.985Z,7.80
2023-05-14T07:23:26.088Z,7.57
2023-05-14T07:28:31.538Z,7.82
2023-05-14T07:33:36.843Z,8.48
2023-05-14T07:38:40.904Z,8.63
2023-05-14T07:43:46.470Z,9.18
2023-05-14T07:48:50.519Z,8.63
2023-05-14T07:53:55.549Z,8.10
2023-05-14T07:59:01.121Z,7.65
2023-05-14T08:04:05.426Z,9.10
2023-05-14T08:09:10.024Z,8.15
2023-05-14T08:14:15.630Z,8.43
2023-05-14T08:19:20.024Z,8.25
2023-05-14T08:24:24.142Z,8.73
2023-05-14T08:29:29.591Z,9.45
2023-05-14T08:34:33.641Z,8.90
2023-05-14T08:39:37.732Z,9.35
2023-05-14T08:44:50.363Z,8.82
2023-05-14T08:50:02.705Z,10.30
2023-05-14T08:55:08.019Z,10.00
2023-05-14T09:00:15.665Z,10.30
2023-05-14T09:05:21.020Z,10.85
2023-05-14T09:10:25.248Z,9.13
2023-05-14T09:15:32.286Z,10.05
2023-05-14T09:20:36.375Z,9.30
2023-05-14T09:25:40.448Z,10.18
2023-05-14T09:30:51.668Z,9.38
2023-05-14T09:36:00.319Z,9.90
2023-05-14T09:41:04.536Z,10.65
2023-05-14T09:46:09.987Z,10.23
2023-05-14T09:51:14.922Z,8.85
2023-05-14T09:56:19.066Z,8.85
2023-05-14T10:01:25.028Z,8.48
2023-05-14T10:06:32.769Z,8.40
2023-05-14T10:11:39.732Z,8.77
2023-05-14T10:16:49.002Z,7.93
2023-05-14T10:21:58.040Z,7.30
2023-05-14T10:27:02.411Z,8.00
2023-05-14T10:32:10.150Z,7.15
2023-05-14T10:37:16.934Z,8.18
2023-05-14T10:47:28.200Z,7.22
2023-05-14T10:52:33.973Z,7.18
2023-05-14T10:57:39.802Z,7.07
2023-05-14T11:02:46.901Z,7.03
2023-05-14T11:07:52.058Z,6.40
2023-05-14T11:12:57.395Z,6.60
2023-05-14T11:18:03.262Z,6.97
2023-05-14T11:23:07.419Z,4.90
2023-05-14T11:28:11.587Z,6.57
2023-05-14T11:33:17.599Z,5.00
2023-05-14T11:38:22.857Z,5.65
2023-05-14T11:43:29.157Z,4.93
2023-05-14T11:48:34.749Z,4.30
2023-05-14T11:53:38.736Z,5.20
2023-05-14T11:58:42.806Z,4.45
2023-05-14T12:03:48.400Z,4.65
2023-05-14T12:08:52.515Z,4.63
2023-05-14T12:13:56.579Z,5.38
2023-05-14T12:19:03.571Z,4.85
2023-05-14T12:24:12.282Z,4.82
2023-05-14T12:29:17.663Z,5.43
2023-05-14T12:34:23.293Z,5.30
2023-05-14T12:39:27.378Z,4.03
2023-05-14T12:44:31.545Z,4.43
2023-05-14T12:49:37.268Z,4.38
2023-05-14T12:54:43.396Z,3.67
2023-05-14T12:59:47.521Z,3.70
2023-05-14T13:04:52.864Z,2.85
2023-05-14T13:09:56.919Z,3.20
2023-05-14T13:15:00.934Z,3.38
2023-05-14T13:20:08.365Z,3.50
2023-05-14T13:25:12.493Z,3.53
2023-05-14T13:30:18.128Z,3.25
2023-05-14T13:35:23.595Z,3.55
2023-05-14T13:40:27.903Z,3.07
2023-05-14T13:45:32.088Z,2.70
2023-05-14T13:50:37.527Z,2.78
2023-05-14T13:55:41.505Z,2.20
2023-05-14T14:00:45.605Z,2.83
2023-05-14T14:05:51.668Z,2.70
2023-05-14T14:10:55.864Z,2.30
2023-05-14T14:16:00.076Z,2.60
2023-05-14T14:21:06.237Z,2.83
2023-05-14T14:26:10.362Z,2.83
2023-05-14T14:31:14.759Z,2.85
2023-05-14T14:36:20.202Z,2.80
2023-05-14T14:41:24.348Z,2.75
2023-05-14T14:46:28.548Z,2.65
2023-05-14T14:51:34.258Z,3.38
2023-05-14T14:56:39.187Z,3.00
2023-05-14T15:01:43.290Z,2.40
2023-05-14T15:06:48.906Z,3.10
2023-05-14T15:11:52.984Z,2.92
2023-05-14T15:16:57.146Z,3.33
2023-05-14T15:22:02.687Z,3.22
2023-05-14T15:27:07.197Z,3.13
2023-05-14T15:32:11.240Z,3.60
2023-05-14T15:37:16.652Z,2.95
2023-05-14T15:42:21.240Z,3.60
2023-05-14T15:47:25.313Z,4.30
2023-05-14T15:52:30.839Z,4.28
2023-05-14T15:57:35.499Z,4.30
2023-05-14T16:02:40.002Z,4.10
2023-05-14T16:07:45.549Z,5.57
2023-05-14T16:12:49.657Z,4.13
2023-05-14T16:17:53.847Z,4.03
2023-05-14T16:22:59.385Z,5.40
2023-05-14T16:28:03.555Z,5.05
2023-05-14T16:33:07.755Z,4.40
2023-05-14T16:38:13.312Z,5.40
2023-05-14T16:43:18.128Z,5.03
2023-05-14T16:48:23.876Z,5.55
2023-05-14T16:53:29.318Z,4.30
2023-05-14T16:58:33.516Z,5.07
2023-05-14T17:03:37.615Z,4.88
2023-05-14T17:08:44.379Z,5.07
2023-05-14T17:18:52.173Z,4.65
2023-05-14T17:23:57.726Z,5.70
2023-05-14T17:29:02.393Z,5.20
2023-05-14T17:34:06.663Z,5.10
2023-05-14T17:39:12.003Z,5.68
2023-05-14T17:44:16.150Z,5.45
2023-05-14T17:49:20.238Z,4.90
2023-05-14T17:54:25.863Z,5.32
2023-05-14T17:59:29.948Z,5.43
2023-05-14T18:04:34.020Z,5.30
2023-05-14T18:09:39.464Z,5.75
2023-05-14T18:14:45.424Z,5.15
2023-05-14T18:19:50.930Z,5.43
2023-05-14T18:24:56.804Z,5.38
2023-05-14T18:30:00.815Z,5.53
2023-05-14T18:35:07.846Z,5.82
2023-05-14T18:40:16.883Z,5.72
2023-05-14T18:45:24.212Z,5.28
2023-05-14T18:50:29.000Z,6.50
2023-05-14T18:55:36.049Z,6.50
2023-05-14T19:00:40.196Z,7.07
2023-05-14T19:05:44.282Z,6.32
2023-05-14T19:10:49.897Z,6.65
2023-05-14T19:15:54.010Z,7.05
2023-05-14T19:20:59.047Z,6.82
2023-05-14T19:26:05.021Z,6.88
2023-05-14T19:31:09.108Z,6.97
2023-05-14T19:36:13.209Z,6.75
2023-05-14T19:41:18.576Z,6.90
2023-05-14T19:46:22.744Z,7.05
2023-05-14T19:51:26.944Z,7.03
2023-05-14T19:56:33.050Z,6.95
2023-05-14T20:01:37.211Z,7.27
2023-05-14T20:06:41.660Z,8.18
2023-05-14T20:11:47.416Z,7.57
2023-05-14T20:16:51.683Z,7.00
2023-05-14T20:21:56.255Z,7.82
2023-05-14T20:27:01.892Z,8.60
2023-05-14T20:32:07.290Z,8.25
2023-05-14T20:37:11.966Z,8.25
2023-05-14T20:42:17.625Z,8.38
2023-05-14T20:47:24.400Z,8.00
2023-05-14T20:57:34.175Z,7.97
2023-05-14T21:02:38.528Z,8.45
2023-05-14T21:07:43.009Z,8.68
2023-05-14T21:12:48.614Z,8.45
2023-05-14T21:17:52.832Z,8.45
2023-05-14T21:22:57.094Z,8.95
2023-05-14T21:28:02.656Z,8.95
2023-05-14T21:33:08.092Z,9.05
2023-05-14T21:38:12.369Z,9.30
2023-05-14T21:43:17.933Z,8.88
2023-05-14T21:48:23.028Z,9.00
2023-05-14T21:53:27.334Z,8.95
2023-05-14T21:58:35.016Z,9.05
2023-05-14T22:03:39.506Z,9.23
2023-05-14T22:08:43.670Z,10.23
2023-05-14T22:13:49.238Z,9.35
2023-05-14T22:18:53.551Z,9.93
2023-05-14T22:23:57.640Z,10.13
2023-05-14T22:29:03.287Z,10.45
2023-05-14T22:34:07.422Z,10.27
2023-05-14T22:39:13.502Z,11.30
2023-05-14T22:44:19.241Z,10.18
2023-05-14T22:49:23.472Z,10.73
2023-05-14T22:54:27.644Z,10.82
2023-05-14T22:59:33.141Z,12.00
2023-05-14T23:04:37.499Z,12.05
2023-05-14T23:09:41.770Z,11.32
2023-05-14T23:14:47.281Z,12.60
2023-05-14T23:19:51.416Z,13.70
2023-05-14T23:24:55.688Z,13.05
2023-05-14T23:30:01.438Z,13.32
2023-05-14T23:35:06.776Z,13.38
2023-05-14T23:40:11.823Z,13.45
2023-05-14T23:45:17.543Z,12.50
2023-05-14T23:50:21.881Z,13.80
2023-05-14T23:55:26.131Z,13.25
